Time;durP1;ratioP1;P1;durP2;ratioP2;P2;SDS_P1;SDS_P2;PMS_P1;PMS_P2;Temp;Humidity;BMP_temperature;BMP_pressure;BME280_temperature;BME280_humidity;BME280_pressure;Samples;Min_cycle;Max_cycle;Signal;HPM_P1;HPM_P2
2023/04/16 00:02:18;;;;;;;;;;;;;;;11.15;62.73;99566.63;4432881;32;34750;-85
2023/04/16 00:04:49;;;;;;;;;;;;;;;11.13;62.26;99566.72;4434683;32;34238;-85
2023/04/16 00:07:16;;;;;;;;;;;;;;;10.84;63.20;99570.78;4431565;32;33806;-85
2023/04/16 00:09:45;;;;;;;;;;;;;;;10.79;63.32;99570.16;4434154;32;34049;-86
2023/04/16 00:12:13;;;;;;;;;;;;;;;10.71;63.73;99561.72;4434620;32;32952;-85
2023/04/16 00:14:42;;;;;;;;;;;;;;;10.77;63.63;99569.34;4428644;32;32392;-85
2023/04/16 00:17:10;;;;;;;;;;;;;;;10.69;63.65;99563.59;4433609;32;34181;-85
2023/04/16 00:19:38;;;;;;;;;;;;;;;10.64;63.89;99565.59;4430654;32;34031;-85
2023/04/16 00:22:05;;;;;;;;;;;;;;;10.68;63.75;99564.50;4433131;32;34485;-85
2023/04/16 00:24:34;;;;;;;;;;;;;;;10.72;63.64;99571.34;4426181;32;33493;-85
2023/04/16 00:27:05;;;;;;;;;;;;;;;10.71;63.50;99561.72;4424786;32;33226;-86
2023/04/16 00:29:36;;;;;;;;;;;;;;;10.47;64.26;99563.75;4425487;32;33581;-85
2023/04/16 00:32:04;;;;;;;;;;;;;;;10.56;64.01;99567.75;4437044;32;32996;-85
2023/04/16 00:34:31;;;;;;;;;;;;;;;10.43;63.79;99573.59;4433679;32;32072;-83
2023/04/16 00:36:59;;;;;;;;;;;;;;;10.52;63.50;99573.16;4429916;32;34560;-83
2023/04/16 00:39:27;;;;;;;;;;;;;;;10.48;63.19;99576.88;4431116;32;33995;-83
2023/04/16 00:41:55;;;;;;;;;;;;;;;10.51;63.36;99573.25;4421154;32;32557;-83
2023/04/16 00:44:24;;;;;;;;;;;;;;;10.41;63.63;99574.59;4426773;32;32626;-83
2023/04/16 00:46:52;;;;;;;;;;;;;;;10.43;63.43;99573.59;4422930;32;32844;-83
2023/04/16 00:49:20;;;;;;;;;;;;;;;10.22;63.86;99574.56;4431859;32;33708;-84
2023/04/16 00:51:47;;;;;;;;;;;;;;;10.27;63.80;99567.31;4433546;32;35046;-83
2023/04/16 00:54:16;;;;;;;;;;;;;;;10.50;62.87;99566.25;4420374;32;32268;-84
2023/04/16 00:56:44;;;;;;;;;;;;;;;10.41;62.44;99570.19;4432308;32;34598;-84
2023/04/16 00:59:15;;;;;;;;;;;;;;;10.28;62.97;99571.66;4421264;32;33901;-84
2023/04/16 01:01:45;;;;;;;;;;;;;;;10.24;62.94;99580.66;4434872;32;33619;-84
2023/04/16 01:04:13;;;;;;;;;;;;;;;10.11;63.08;99572.44;4432292;32;33023;-85
2023/04/16 01:06:42;;;;;;;;;;;;;;;10.41;61.66;99570.19;4437671;32;33030;-84
2023/04/16 01:09:10;;;;;;;;;;;;;;;10.01;63.01;99582.50;4419087;32;33305;-84
2023/04/16 01:11:38;;;;;;;;;;;;;;;9.98;63.17;99587.94;4424654;32;33157;-84
2023/04/16 01:14:05;;;;;;;;;;;;;;;10.04;63.21;99591.22;4430169;32;33316;-84
2023/04/16 01:16:36;;;;;;;;;;;;;;;10.10;62.48;99575.09;4437059;32;33426;-84
2023/04/16 01:19:05;;;;;;;;;;;;;;;10.16;62.10;99585.38;4432668;32;33669;-84
2023/04/16 01:21:33;;;;;;;;;;;;;;;9.67;64.07;99588.41;4418958;32;33355;-84
2023/04/16 01:24:03;;;;;;;;;;;;;;;10.00;62.97;99577.31;4433840;32;34073;-84
2023/04/16 01:26:32;;;;;;;;;;;;;;;9.92;62.91;99588.22;4442878;32;32990;-84
2023/04/16 01:29:00;;;;;;;;;;;;;;;9.83;63.24;99588.63;4430823;32;35128;-84
2023/04/16 01:31:29;;;;;;;;;;;;;;;9.87;62.59;99592.81;4425647;32;32991;-84
2023/04/16 01:33:59;;;;;;;;;;;;;;;9.80;63.34;99588.75;4420461;32;32239;-84
2023/04/16 01:36:33;;;;;;;;;;;;;;;9.90;62.73;99592.69;4419045;32;33498;-84
2023/04/16 01:39:01;;;;;;;;;;;;;;;9.75;63.27;99590.72;4424127;32;33566;-83
2023/04/16 01:41:30;;;;;;;;;;;;;;;9.60;63.57;99575.59;4417382;32;34784;-83
2023/04/16 01:43:58;;;;;;;;;;;;;;;9.60;63.82;99586.12;4432459;32;33828;-84
2023/04/16 01:46:27;;;;;;;;;;;;;;;9.67;63.88;99587.56;4435929;32;33800;-83
2023/04/16 01:48:55;;;;;;;;;;;;;;;9.65;63.85;99586.78;4418101;32;34480;-84
2023/04/16 01:51:23;;;;;;;;;;;;;;;9.75;63.73;99590.72;4429667;32;34399;-84
2023/04/16 01:53:52;;;;;;;;;;;;;;;9.48;64.36;99595.41;4430509;32;33095;-84
2023/04/16 01:56:19;;;;;;;;;;;;;;;9.62;64.35;99590.41;4429187;32;32441;-83
2023/04/16 01:58:47;;;;;;;;;;;;;;;9.58;64.57;99598.50;4428761;32;34163;-83
2023/04/16 02:01:15;;;;;;;;;;;;;;;9.53;64.23;99592.56;4433888;32;33269;-84
2023/04/16 02:03:45;;;;;;;;;;;;;;;9.74;63.61;99592.50;4431978;32;33285;-84
2023/04/16 02:06:15;;;;;;;;;;;;;;;9.64;63.95;99587.72;4430594;32;33133;-84
2023/04/16 02:08:42;;;;;;;;;;;;;;;9.55;64.25;99593.38;4425120;32;32543;-84
2023/04/16 02:11:10;;;;;;;;;;;;;;;9.51;64.41;99597.06;4422357;32;34075;-84
2023/04/16 02:13:38;;;;;;;;;;;;;;;9.51;64.38;99591.78;4444081;32;33966;-84
2023/04/16 02:16:05;;;;;;;;;;;;;;;9.40;64.48;99601.00;4431412;32;33134;-84
2023/04/16 02:18:36;;;;;;;;;;;;;;;9.51;64.27;99602.34;4429335;32;33888;-84
2023/04/16 02:21:05;;;;;;;;;;;;;;;9.46;64.30;99606.03;4430007;32;34123;-84
2023/04/16 02:23:34;;;;;;;;;;;;;;;9.55;64.06;99611.84;4418857;32;32660;-84
2023/04/16 02:26:02;;;;;;;;;;;;;;;9.49;64.33;99605.00;4420012;32;33181;-84
2023/04/16 02:28:30;;;;;;;;;;;;;;;9.27;64.98;99609.50;4419203;32;35006;-84
2023/04/16 02:30:58;;;;;;;;;;;;;;;9.43;64.38;99611.41;4416717;32;34686;-83
2023/04/16 02:33:26;;;;;;;;;;;;;;;9.44;64.32;99618.38;4429614;32;33511;-85
2023/04/16 02:35:56;;;;;;;;;;;;;;;9.47;64.15;99610.38;4429888;32;32127;-85
2023/04/16 02:38:24;;;;;;;;;;;;;;;9.65;62.84;99607.88;4431525;32;34213;-84
2023/04/16 02:40:53;;;;;;;;;;;;;;;9.53;63.42;99603.13;4431051;32;34058;-84
2023/04/16 02:43:21;;;;;;;;;;;;;;;9.67;63.02;99606.00;4423831;32;32018;-84
2023/04/16 02:45:48;;;;;;;;;;;;;;;9.31;63.49;99609.31;4418563;32;32874;-84
2023/04/16 02:48:16;;;;;;;;;;;;;;;9.40;63.55;99614.19;4418768;32;32943;-84
2023/04/16 02:50:44;;;;;;;;;;;;;;;9.29;63.69;99607.63;4412593;32;34136;-84
2023/04/16 02:53:11;;;;;;;;;;;;;;;9.09;64.27;99613.72;4431693;32;34077;-85
2023/04/16 02:55:39;;;;;;;;;;;;;;;9.16;64.27;99616.06;4442273;32;32892;-84
2023/04/16 02:58:07;;;;;;;;;;;;;;;9.06;64.14;99612.06;4423660;32;33104;-84
2023/04/16 03:00:36;;;;;;;;;;;;;;;9.26;63.85;99616.53;4429745;32;34504;-84
2023/04/16 03:03:04;;;;;;;;;;;;;;;9.29;63.90;99624.28;4425617;32;32526;-84
2023/04/16 03:05:32;;;;;;;;;;;;;;;9.07;64.68;99623.44;4432331;32;34307;-85
2023/04/16 03:08:00;;;;;;;;;;;;;;;9.15;64.19;99616.09;4417397;32;33331;-84
2023/04/16 03:10:28;;;;;;;;;;;;;;;9.16;64.13;99617.81;4418425;32;32528;-84
2023/04/16 03:12:55;;;;;;;;;;;;;;;9.26;63.82;99620.94;4432183;32;33905;-84
2023/04/16 03:15:25;;;;;;;;;;;;;;;9.21;63.42;99623.78;4429034;32;33204;-83
2023/04/16 03:17:53;;;;;;;;;;;;;;;9.20;63.56;99619.41;4431525;32;33859;-84
2023/04/16 03:20:21;;;;;;;;;;;;;;;9.21;63.37;99616.72;4418899;32;33166;-84
2023/04/16 03:22:51;;;;;;;;;;;;;;;9.18;63.23;99616.00;4431811;32;33129;-84
2023/04/16 03:25:19;;;;;;;;;;;;;;;9.11;63.11;99625.03;4424938;32;34633;-83
2023/04/16 03:27:48;;;;;;;;;;;;;;;9.07;63.50;99632.25;4434497;32;34413;-83
2023/04/16 03:30:15;;;;;;;;;;;;;;;9.01;63.56;99637.72;4418213;32;33895;-84
2023/04/16 03:32:47;;;;;;;;;;;;;;;8.97;63.37;99633.50;4441448;32;32099;-83
2023/04/16 03:35:15;;;;;;;;;;;;;;;9.01;63.56;99634.25;4418831;32;34065;-83
2023/04/16 03:37:42;;;;;;;;;;;;;;;8.81;64.46;99642.94;4416755;32;33780;-84
2023/04/16 03:40:10;;;;;;;;;;;;;;;9.10;62.91;99649.69;4425291;32;33436;-84
2023/04/16 03:42:38;;;;;;;;;;;;;;;8.63;64.39;99655.88;4428653;32;33937;-84
2023/04/16 03:45:08;;;;;;;;;;;;;;;8.80;63.46;99663.13;4414579;32;32750;-84
2023/04/16 03:47:37;;;;;;;;;;;;;;;8.90;63.32;99659.22;4433462;32;35020;-84
2023/04/16 03:50:07;;;;;;;;;;;;;;;8.61;64.63;99664.75;4418606;32;33358;-84
2023/04/16 03:52:37;;;;;;;;;;;;;;;8.51;64.53;99668.66;4435908;32;32543;-84
2023/04/16 03:55:07;;;;;;;;;;;;;;;8.70;64.44;99677.56;4430984;32;34388;-84
2023/04/16 03:57:35;;;;;;;;;;;;;;;8.64;64.78;99672.53;4430309;32;33975;-83
2023/04/16 04:00:05;;;;;;;;;;;;;;;8.54;65.40;99673.78;4428849;32;33066;-84
2023/04/16 04:02:42;;;;;;;;;;;;;;;8.91;63.81;99676.72;4426221;32;32685;-84
2023/04/16 04:05:17;;;;;;;;;;;;;;;8.79;64.05;99677.22;4418202;32;33177;-84
2023/04/16 04:07:45;;;;;;;;;;;;;;;8.60;64.72;99676.22;4418099;32;33370;-83
2023/04/16 04:10:14;;;;;;;;;;;;;;;8.57;64.96;99674.53;4422477;32;33376;-83
2023/04/16 04:12:42;;;;;;;;;;;;;;;8.79;64.58;99666.69;4417916;32;33775;-84
2023/04/16 04:15:11;;;;;;;;;;;;;;;9.07;63.27;99670.84;4429749;32;33341;-83
2023/04/16 04:17:39;;;;;;;;;;;;;;;8.79;64.21;99661.44;4422228;32;35509;-84
2023/04/16 04:20:08;;;;;;;;;;;;;;;8.83;64.83;99672.69;4424216;32;33108;-84
2023/04/16 04:22:36;;;;;;;;;;;;;;;8.87;64.51;99677.75;4426865;32;33264;-83
2023/04/16 04:25:05;;;;;;;;;;;;;;;8.83;64.76;99678.81;4431504;32;34054;-83
2023/04/16 04:27:33;;;;;;;;;;;;;;;8.82;64.98;99689.41;4433974;32;34754;-83
2023/04/16 04:30:06;;;;;;;;;;;;;;;8.93;64.95;99685.44;4426252;32;32995;-83
2023/04/16 04:32:34;;;;;;;;;;;;;;;8.85;65.68;99691.94;4434213;32;32925;-83
2023/04/16 04:35:05;;;;;;;;;;;;;;;9.08;65.18;99691.88;4432993;32;33976;-84
2023/04/16 04:37:33;;;;;;;;;;;;;;;9.17;65.00;99702.06;4417106;32;33436;-85
2023/04/16 04:40:03;;;;;;;;;;;;;;;9.09;65.16;99703.28;4424034;32;32974;-83
2023/04/16 04:42:35;;;;;;;;;;;;;;;9.07;65.10;99702.47;4431855;32;33952;-84
2023/04/16 04:45:05;;;;;;;;;;;;;;;9.12;65.39;99700.53;4420521;32;32847;-84
2023/04/16 04:47:34;;;;;;;;;;;;;;;9.11;65.63;99699.66;4426181;32;33077;-84
2023/04/16 04:50:02;;;;;;;;;;;;;;;9.26;65.43;99692.94;4429430;32;33265;-83
2023/04/16 04:52:35;;;;;;;;;;;;;;;9.15;65.38;99689.84;4410790;32;32036;-83
2023/04/16 04:55:05;;;;;;;;;;;;;;;9.22;65.41;99691.34;4431894;32;34294;-83
2023/04/16 04:57:33;;;;;;;;;;;;;;;9.41;64.88;99697.59;4431096;32;33835;-83
2023/04/16 05:02:43;;;;;;;;;;;;;;;9.41;65.15;99704.66;4429499;32;32375;-84
2023/04/16 05:05:14;;;;;;;;;;;;;;;9.51;65.18;99705.97;4428241;32;34575;-84
2023/04/16 05:07:46;;;;;;;;;;;;;;;9.68;64.83;99706.13;4410843;32;33306;-84
2023/04/16 05:10:19;;;;;;;;;;;;;;;9.66;64.89;99705.34;4418779;32;32980;-84
2023/04/16 05:12:50;;;;;;;;;;;;;;;9.74;65.06;99705.91;4411592;32;32156;-84
2023/04/16 05:15:23;;;;;;;;;;;;;;;9.72;65.14;99706.88;4414673;32;32852;-84
2023/04/16 05:17:58;;;;;;;;;;;;;;;9.77;64.94;99704.88;4433306;32;35891;-85
2023/04/16 05:20:30;;;;;;;;;;;;;;;9.65;65.13;99705.41;4410442;32;34266;-85
2023/04/16 05:22:58;;;;;;;;;;;;;;;9.67;65.59;99711.47;4417412;32;32615;-85
2023/04/16 05:25:25;;;;;;;;;;;;;;;9.61;65.47;99715.22;4430383;32;33994;-85
2023/04/16 05:27:54;;;;;;;;;;;;;;;9.72;65.68;99725.31;4431355;32;34301;-85
2023/04/16 05:30:24;;;;;;;;;;;;;;;9.81;65.15;99724.94;4435068;32;32778;-85
2023/04/16 05:35:32;;;;;;;;;;;;;;;9.87;65.67;99727.31;4422609;32;35366;-83
2023/04/16 05:38:09;;;;;;;;;;;;;;;9.85;66.09;99717.75;4419914;32;34500;-83
2023/04/16 05:40:52;;;;;;;;;;;;;;;9.81;66.57;99724.09;4431728;32;35279;-83
2023/04/16 05:43:23;;;;;;;;;;;;;;;10.05;66.14;99724.81;4428973;32;32103;-83
2023/04/16 05:45:51;;;;;;;;;;;;;;;10.15;65.95;99710.31;4436514;32;32345;-83
2023/04/16 05:48:21;;;;;;;;;;;;;;;10.07;66.36;99723.84;4408644;32;34396;-83
2023/04/16 05:50:51;;;;;;;;;;;;;;;10.07;66.89;99720.38;4434503;32;32974;-83
2023/04/16 05:53:23;;;;;;;;;;;;;;;10.26;66.65;99718.66;4423085;32;33805;-83
2023/04/16 05:55:52;;;;;;;;;;;;;;;10.25;67.16;99722.22;4431744;32;32567;-83
2023/04/16 05:58:20;;;;;;;;;;;;;;;10.36;67.15;99722.62;4421029;32;33789;-83
2023/04/16 06:03:34;;;;;;;;;;;;;;;10.63;66.54;99733.72;4417062;32;32378;-83
2023/04/16 06:06:02;;;;;;;;;;;;;;;10.82;66.08;99728.44;4429655;32;33882;-83
2023/04/16 06:08:31;;;;;;;;;;;;;;;10.87;66.31;99730.88;4428695;32;33977;-83
2023/04/16 06:11:06;;;;;;;;;;;;;;;10.80;66.84;99730.31;4427786;32;32694;-83
2023/04/16 06:13:39;;;;;;;;;;;;;;;10.94;66.61;99722.62;4420138;32;32299;-83
2023/04/16 06:16:09;;;;;;;;;;;;;;;11.07;66.23;99727.34;4415004;32;32436;-83
2023/04/16 06:18:39;;;;;;;;;;;;;;;11.20;66.20;99726.69;4429025;32;32701;-83
2023/04/16 06:21:08;;;;;;;;;;;;;;;11.21;66.57;99731.03;4434283;32;33656;-84
2023/04/16 06:23:36;;;;;;;;;;;;;;;11.54;65.29;99725.94;4432182;32;32668;-84
2023/04/16 06:26:06;;;;;;;;;;;;;;;11.39;66.35;99728.44;4434450;32;32844;-83
2023/04/16 06:28:35;;;;;;;;;;;;;;;11.60;65.96;99726.56;4423571;32;33904;-83
2023/04/16 06:31:08;;;;;;;;;;;;;;;11.47;66.91;99727.13;4423105;32;34344;-84
2023/04/16 06:33:41;;;;;;;;;;;;;;;11.68;66.78;99724.38;4433110;32;33353;-84
2023/04/16 06:36:17;;;;;;;;;;;;;;;11.98;66.37;99736.13;4430227;32;33902;-83
2023/04/16 06:41:25;;;;;;;;;;;;;;;12.39;66.52;99719.91;4431391;32;35020;-85
2023/04/16 06:44:00;;;;;;;;;;;;;;;12.59;66.53;99725.94;4430285;32;33978;-84
2023/04/16 06:46:48;;;;;;;;;;;;;;;12.92;64.42;99720.63;4432417;32;35671;-84
2023/04/16 06:49:17;;;;;;;;;;;;;;;13.00;61.38;99719.25;4429644;32;33185;-84
2023/04/16 06:51:45;;;;;;;;;;;;;;;12.91;62.30;99717.09;4416593;32;33185;-84
2023/04/16 06:54:15;;;;;;;;;;;;;;;12.98;62.59;99715.84;4434048;32;35824;-84
2023/04/16 06:59:20;;;;;;;;;;;;;;;12.77;63.76;99715.22;4422471;32;33937;-84
2023/04/16 07:02:02;;;;;;;;;;;;;;;13.07;62.79;99709.16;4436597;32;34918;-84
2023/04/16 07:04:37;;;;;;;;;;;;;;;13.23;61.75;99710.06;4430613;32;33867;-84
2023/04/16 07:07:17;;;;;;;;;;;;;;;13.25;61.67;99726.75;4429799;32;34686;-84
2023/04/16 07:09:54;;;;;;;;;;;;;;;13.45;60.77;99714.16;4443728;32;33994;-84
2023/04/16 07:12:24;;;;;;;;;;;;;;;13.48;61.12;99720.16;4441116;32;32794;-83
2023/04/16 07:14:52;;;;;;;;;;;;;;;13.86;58.35;99722.38;4419891;32;33022;-83
2023/04/16 07:17:26;;;;;;;;;;;;;;;13.86;57.62;99724.16;4421497;32;33950;-82
2023/04/16 07:19:54;;;;;;;;;;;;;;;13.43;59.54;99716.03;4407207;32;30796;-87
2023/04/16 07:22:24;;;;;;;;;;;;;;;13.69;59.62;99720.72;4444543;32;32976;-87
2023/04/16 07:24:59;;;;;;;;;;;;;;;13.79;59.86;99718.37;4430706;32;32456;-85
2023/04/16 07:27:32;;;;;;;;;;;;;;;14.05;59.72;99712.41;4431990;32;34875;-84
2023/04/16 07:32:44;;;;;;;;;;;;;;;13.95;57.77;99723.62;4432251;32;34713;-84
2023/04/16 07:35:20;;;;;;;;;;;;;;;14.59;56.60;99715.34;4431366;32;32909;-84
2023/04/16 07:37:48;;;;;;;;;;;;;;;14.80;56.09;99717.59;4431195;32;33539;-84
2023/04/16 07:40:17;;;;;;;;;;;;;;;14.81;56.85;99721.97;4422658;32;34061;-85
2023/04/16 07:42:49;;;;;;;;;;;;;;;14.81;57.17;99721.97;4432777;32;34778;-84
2023/04/16 07:47:58;;;;;;;;;;;;;;;15.07;55.01;99710.56;4418115;32;33371;-85
2023/04/16 07:50:28;;;;;;;;;;;;;;;15.38;54.31;99708.56;4414426;32;33380;-84
2023/04/16 07:53:06;;;;;;;;;;;;;;;15.46;52.95;99711.59;4429943;32;33669;-84
2023/04/16 07:55:40;;;;;;;;;;;;;;;15.20;53.92;99720.44;4418154;32;32807;-85
2023/04/16 07:58:13;;;;;;;;;;;;;;;15.23;54.47;99714.88;4432186;32;34406;-85
2023/04/16 08:00:46;;;;;;;;;;;;;;;15.71;53.03;99718.00;4446415;32;34088;-86
2023/04/16 08:03:18;;;;;;;;;;;;;;;15.37;53.22;99717.50;4431231;32;33734;-86
2023/04/16 08:05:47;;;;;;;;;;;;;;;15.49;53.16;99713.22;4432420;32;32489;-86
2023/04/16 08:08:17;;;;;;;;;;;;;;;15.62;52.36;99720.31;4426382;32;32892;-87
2023/04/16 08:16:00;;;;;;;;;;;;;;;16.31;50.68;99714.84;4433727;32;33748;-86
2023/04/16 08:18:30;;;;;;;;;;;;;;;16.26;49.51;99717.81;4432799;32;34738;-86
2023/04/16 08:21:04;;;;;;;;;;;;;;;16.17;50.47;99722.91;4442693;32;33868;-84
2023/04/16 08:23:33;;;;;;;;;;;;;;;16.26;50.88;99716.97;4411582;32;32764;-85
2023/04/16 08:26:03;;;;;;;;;;;;;;;16.28;51.12;99726.53;4421246;32;32341;-84
2023/04/16 08:28:33;;;;;;;;;;;;;;;16.40;48.87;99719.53;4421486;32;32406;-84
2023/04/16 08:31:04;;;;;;;;;;;;;;;16.33;49.55;99728.88;4410901;32;33108;-84
2023/04/16 08:33:44;;;;;;;;;;;;;;;16.43;49.01;99726.47;4413119;32;32909;-84
2023/04/16 08:36:18;;;;;;;;;;;;;;;16.24;50.83;99730.41;4444473;32;31312;-84
2023/04/16 08:38:51;;;;;;;;;;;;;;;16.06;52.26;99727.16;4433152;32;36314;-84
2023/04/16 08:41:26;;;;;;;;;;;;;;;16.29;48.75;99727.41;4428452;32;35029;-84
2023/04/16 08:44:01;;;;;;;;;;;;;;;16.63;49.74;99726.78;4425093;32;34670;-85
2023/04/16 08:46:36;;;;;;;;;;;;;;;16.49;49.27;99728.72;4445612;32;33054;-84
2023/04/16 08:49:05;;;;;;;;;;;;;;;16.81;48.63;99732.69;4421390;32;33055;-84
2023/04/16 08:51:39;;;;;;;;;;;;;;;16.62;48.78;99730.41;4435026;32;34407;-83
2023/04/16 08:54:09;;;;;;;;;;;;;;;16.71;47.12;99738.72;4416711;32;33901;-83
2023/04/16 08:56:42;;;;;;;;;;;;;;;16.20;48.32;99736.03;4433943;32;32775;-84
2023/04/16 09:01:56;;;;;;;;;;;;;;;16.12;49.00;99740.06;4431688;32;33358;-84
2023/04/16 09:04:30;;;;;;;;;;;;;;;16.43;47.54;99750.47;4423425;32;34017;-83
2023/04/16 09:07:01;;;;;;;;;;;;;;;16.55;46.96;99753.09;4418781;32;33072;-84
2023/04/16 09:12:22;;;;;;;;;;;;;;;16.72;45.54;99754.66;4445528;32;33870;-84
2023/04/16 09:14:53;;;;;;;;;;;;;;;16.69;46.32;99754.81;4422836;32;33005;-84
2023/04/16 09:20:13;;;;;;;;;;;;;;;16.41;45.72;99763.88;4429526;32;34077;-84
2023/04/16 09:22:49;;;;;;;;;;;;;;;16.11;46.54;99772.13;4432626;32;32018;-84
2023/04/16 09:25:20;;;;;;;;;;;;;;;16.37;47.06;99765.03;4429024;32;31779;-84
2023/04/16 09:27:57;;;;;;;;;;;;;;;16.39;46.97;99771.13;4429805;32;33172;-84
2023/04/16 09:30:26;;;;;;;;;;;;;;;16.97;45.29;99771.59;4433309;32;33625;-84
2023/04/16 09:33:21;;;;;;;;;;;;;;;16.52;48.05;99769.34;4432452;32;34670;-84
2023/04/16 09:35:59;;;;;;;;;;;;;;;16.36;47.24;99774.00;4439476;32;33843;-84
2023/04/16 09:38:44;;;;;;;;;;;;;;;16.43;47.29;99777.09;4432589;32;34003;-84
2023/04/16 09:41:24;;;;;;;;;;;;;;;16.69;46.33;99767.31;4423527;32;34629;-84
2023/04/16 09:43:56;;;;;;;;;;;;;;;16.80;47.48;99767.44;4406050;32;33599;-84
2023/04/16 09:46:35;;;;;;;;;;;;;;;16.64;46.58;99776.47;4410343;32;33187;-83
2023/04/16 09:49:14;;;;;;;;;;;;;;;15.99;48.18;99772.94;4430065;32;32939;-84
2023/04/16 09:54:30;;;;;;;;;;;;;;;16.37;47.25;99778.34;4418563;32;32946;-83
2023/04/16 09:57:09;;;;;;;;;;;;;;;16.21;49.08;99778.53;4429477;32;31832;-83
2023/04/16 09:59:39;;;;;;;;;;;;;;;15.75;50.15;99772.75;4429885;32;31875;-84
2023/04/16 10:02:09;;;;;;;;;;;;;;;15.87;50.39;99774.63;4421169;32;32576;-84
2023/04/16 10:04:48;;;;;;;;;;;;;;;16.28;49.33;99769.16;4417530;32;33566;-83
2023/04/16 10:07:30;;;;;;;;;;;;;;;16.36;49.20;99769.50;4420099;32;34745;-84
2023/04/16 10:10:01;;;;;;;;;;;;;;;16.24;49.49;99766.84;4434257;32;33843;-83
2023/04/16 10:12:33;;;;;;;;;;;;;;;15.94;50.21;99770.56;4427634;32;34867;-84
2023/04/16 10:17:39;;;;;;;;;;;;;;;16.38;49.03;99761.44;4433076;32;32966;-83
2023/04/16 10:20:11;;;;;;;;;;;;;;;16.16;50.08;99769.16;4423354;32;32418;-83
2023/04/16 10:22:49;;;;;;;;;;;;;;;16.31;49.22;99762.78;4419921;32;33916;-83
2023/04/16 10:25:19;;;;;;;;;;;;;;;16.35;48.84;99750.97;4412525;32;35161;-83
2023/04/16 10:27:46;;;;;;;;;;;;;;;16.11;50.17;99753.50;4437069;32;32645;-84
2023/04/16 10:30:21;;;;;;;;;;;;;;;16.05;51.00;99754.75;4432206;32;32924;-83
2023/04/16 10:32:55;;;;;;;;;;;;;;;16.13;49.80;99752.41;4431885;32;34734;-84
2023/04/16 10:35:33;;;;;;;;;;;;;;;15.66;51.16;99754.72;4424080;32;34113;-83
2023/04/16 10:38:23;;;;;;;;;;;;;;;16.04;50.61;99753.03;4423584;32;35553;-84
2023/04/16 10:40:58;;;;;;;;;;;;;;;16.48;47.93;99751.00;4409729;32;32037;-83
2023/04/16 10:43:30;;;;;;;;;;;;;;;16.65;48.39;99743.50;4427929;32;32434;-84
2023/04/16 10:49:01;;;;;;;;;;;;;;;16.83;47.48;99740.56;4426824;32;32980;-84
2023/04/16 10:51:36;;;;;;;;;;;;;;;16.96;47.90;99732.56;4420201;32;33382;-83
2023/04/16 10:54:13;;;;;;;;;;;;;;;16.61;47.84;99730.50;4445292;32;34282;-84
2023/04/16 10:56:46;;;;;;;;;;;;;;;17.40;46.26;99721.34;4445338;32;33462;-84
2023/04/16 10:59:20;;;;;;;;;;;;;;;17.55;46.09;99730.88;4417060;32;33492;-84
2023/04/16 11:01:56;;;;;;;;;;;;;;;17.71;44.40;99727.06;4411358;32;32499;-83
2023/04/16 11:04:38;;;;;;;;;;;;;;;17.67;45.62;99724.63;4430618;32;34830;-84
2023/04/16 11:07:18;;;;;;;;;;;;;;;17.81;44.07;99720.13;4423341;32;34922;-84
2023/04/16 11:12:36;;;;;;;;;;;;;;;17.98;45.02;99717.03;4427769;32;33188;-84
2023/04/16 11:17:57;;;;;;;;;;;;;;;17.85;44.08;99718.91;4430227;32;32913;-84
2023/04/16 11:20:26;;;;;;;;;;;;;;;18.41;42.28;99717.25;4427879;32;33281;-84
2023/04/16 11:22:57;;;;;;;;;;;;;;;18.09;43.68;99724.25;4427184;32;33469;-85
2023/04/16 11:25:34;;;;;;;;;;;;;;;18.02;43.66;99707.81;4430834;32;34809;-84
2023/04/16 11:28:03;;;;;;;;;;;;;;;18.42;43.76;99712.78;4421969;32;34173;-84
2023/04/16 11:33:11;;;;;;;;;;;;;;;18.50;43.78;99715.69;4428415;32;32883;-83
2023/04/16 11:35:46;;;;;;;;;;;;;;;18.50;42.06;99712.16;4428254;32;33772;-84
2023/04/16 11:38:33;;;;;;;;;;;;;;;18.21;43.47;99722.44;4429520;32;33148;-84
2023/04/16 11:41:03;;;;;;;;;;;;;;;18.20;42.72;99724.25;4418408;32;33545;-84
2023/04/16 11:43:37;;;;;;;;;;;;;;;17.98;43.23;99722.38;4430191;32;32155;-83
2023/04/16 11:46:05;;;;;;;;;;;;;;;18.50;42.92;99718.37;4442334;32;34218;-84
2023/04/16 11:51:33;;;;;;;;;;;;;;;18.88;42.34;99711.84;4415661;32;33150;-85
2023/04/16 11:54:02;;;;;;;;;;;;;;;18.80;42.45;99703.59;4426073;32;32746;-84
2023/04/16 11:56:33;;;;;;;;;;;;;;;19.09;42.11;99699.44;4421489;32;33086;-84
2023/04/16 11:59:09;;;;;;;;;;;;;;;19.05;41.17;99689.97;4434842;32;34409;-83
2023/04/16 12:01:48;;;;;;;;;;;;;;;19.19;40.80;99689.69;4438085;32;34196;-84
2023/04/16 12:04:18;;;;;;;;;;;;;;;19.31;41.67;99685.16;4425852;32;32384;-84
2023/04/16 12:06:54;;;;;;;;;;;;;;;19.40;42.72;99692.44;4403160;32;33474;-83
2023/04/16 12:12:03;;;;;;;;;;;;;;;18.90;40.03;99692.06;4415099;32;34378;-84
2023/04/16 12:14:32;;;;;;;;;;;;;;;18.83;41.28;99698.00;4397421;32;33280;-83
2023/04/16 12:17:18;;;;;;;;;;;;;;;18.79;40.86;99686.69;4419066;32;33397;-84
2023/04/16 12:19:54;;;;;;;;;;;;;;;18.63;42.31;99695.03;4432341;32;33895;-84
2023/04/16 12:22:36;;;;;;;;;;;;;;;18.45;41.35;99693.81;4433797;32;33356;-83
2023/04/16 12:25:16;;;;;;;;;;;;;;;18.43;40.80;99685.06;4431239;32;34096;-84
2023/04/16 12:27:58;;;;;;;;;;;;;;;18.16;43.21;99698.75;4431653;32;34331;-83
2023/04/16 12:33:17;;;;;;;;;;;;;;;18.33;42.39;99700.12;4426073;32;33613;-84
2023/04/16 12:35:52;;;;;;;;;;;;;;;19.12;42.33;99693.84;4435474;32;33947;-84
2023/04/16 12:38:35;;;;;;;;;;;;;;;18.84;43.88;99689.00;4429521;32;33925;-84
2023/04/16 12:41:06;;;;;;;;;;;;;;;18.34;41.57;99696.47;4428519;32;35733;-84
2023/04/16 12:43:42;;;;;;;;;;;;;;;18.97;41.15;99689.72;4429716;32;34776;-84
2023/04/16 12:48:49;;;;;;;;;;;;;;;19.16;39.23;99689.94;4431432;32;34602;-83
2023/04/16 12:51:35;;;;;;;;;;;;;;;18.92;39.93;99682.06;4432346;32;34966;-83
2023/04/16 12:54:06;;;;;;;;;;;;;;;18.48;40.06;99685.56;4429419;32;33244;-84
2023/04/16 12:56:43;;;;;;;;;;;;;;;19.00;41.34;99668.09;4423327;32;32618;-84
2023/04/16 12:59:20;;;;;;;;;;;;;;;19.32;39.81;99673.50;4428868;32;32790;-84
2023/04/16 13:01:54;;;;;;;;;;;;;;;19.38;40.39;99666.78;4429648;32;31450;-84
2023/04/16 13:04:29;;;;;;;;;;;;;;;19.91;38.38;99664.16;4441716;32;34691;-84
2023/04/16 13:06:59;;;;;;;;;;;;;;;19.82;38.83;99671.13;4434282;32;32560;-84
2023/04/16 13:12:22;;;;;;;;;;;;;;;19.79;39.51;99667.84;4427792;32;33444;-84
2023/04/16 13:15:04;;;;;;;;;;;;;;;19.98;39.89;99654.59;4432841;32;34735;-84
2023/04/16 13:17:40;;;;;;;;;;;;;;;20.17;38.76;99652.03;4409605;32;33909;-84
2023/04/16 13:20:09;;;;;;;;;;;;;;;20.06;37.44;99654.81;4427360;32;33866;-83
2023/04/16 13:22:37;;;;;;;;;;;;;;;19.66;39.55;99652.00;4428360;32;34421;-84
2023/04/16 13:25:06;;;;;;;;;;;;;;;19.62;38.28;99655.91;4417869;32;33738;-84
2023/04/16 13:30:10;;;;;;;;;;;;;;;19.52;38.02;99639.72;4431965;32;32960;-84
2023/04/16 13:32:41;;;;;;;;;;;;;;;19.62;37.99;99648.72;4407489;32;32737;-84
2023/04/16 13:37:52;;;;;;;;;;;;;;;19.75;38.41;99644.97;4420246;32;31973;-84
2023/04/16 13:40:21;;;;;;;;;;;;;;;19.88;39.28;99634.94;4418484;32;34178;-85
2023/04/16 13:42:49;;;;;;;;;;;;;;;19.76;37.39;99636.84;4422370;32;33623;-85
2023/04/16 13:45:33;;;;;;;;;;;;;;;19.59;37.33;99637.34;4434410;32;35147;-84
2023/04/16 13:50:51;;;;;;;;;;;;;;;19.61;37.28;99633.63;4444449;32;33604;-85
2023/04/16 13:53:26;;;;;;;;;;;;;;;19.81;37.77;99631.94;4431623;32;33887;-85
2023/04/16 13:55:59;;;;;;;;;;;;;;;19.71;37.41;99633.69;4430304;32;32684;-85
2023/04/16 13:58:27;;;;;;;;;;;;;;;19.75;37.04;99631.59;4424150;32;32287;-85
2023/04/16 14:01:11;;;;;;;;;;;;;;;19.87;36.97;99626.03;4433081;32;34483;-85
2023/04/16 14:06:20;;;;;;;;;;;;;;;19.76;36.58;99633.31;4420492;32;33514;-85
2023/04/16 14:08:54;;;;;;;;;;;;;;;19.77;37.50;99635.84;4426095;32;33085;-85
2023/04/16 14:13:59;;;;;;;;;;;;;;;19.76;38.42;99628.81;4430470;32;33797;-85
2023/04/16 14:19:13;;;;;;;;;;;;;;;19.66;37.05;99628.72;4439822;32;34684;-85
2023/04/16 14:21:57;;;;;;;;;;;;;;;19.75;39.01;99632.47;4445296;32;33718;-86
2023/04/16 14:27:05;;;;;;;;;;;;;;;19.64;38.58;99630.66;4428519;32;35077;-85
2023/04/16 14:29:50;;;;;;;;;;;;;;;19.74;38.93;99624.53;4432476;32;33590;-85
2023/04/16 14:32:24;;;;;;;;;;;;;;;19.71;38.47;99630.16;4428142;32;32645;-87
2023/04/16 14:34:54;;;;;;;;;;;;;;;19.84;37.91;99625.44;4431897;32;32856;-88